Time;durP1;ratioP1;P1;durP2;ratioP2;P2;SDS_P1;SDS_P2;PMS_P1;PMS_P2;Temp;Humidity;BMP_temperature;BMP_pressure;BME280_temperature;BME280_humidity;BME280_pressure;Samples;Min_cycle;Max_cycle;Signal;HPM_P1;HPM_P2
2022/12/20 00:02:03;;;;;;;1.80;1.33;;;;;;;;;;4950720;29;20051;-66
2022/12/20 00:04:28;;;;;;;2.00;1.37;;;;;;;;;;4935697;29;20071;-65
2022/12/20 00:06:54;;;;;;;1.97;1.23;;;;;;;;;;4920428;29;20101;-66
2022/12/20 00:09:19;;;;;;;1.27;0.87;;;;;;;;;;4920372;29;20045;-65
2022/12/20 00:11:46;;;;;;;1.07;1.00;;;;;;;;;;4935671;29;20426;-66
2022/12/20 00:14:12;;;;;;;1.50;1.23;;;;;;;;;;4919539;29;20039;-66
2022/12/20 00:16:37;;;;;;;0.80;0.80;;;;;;;;;;4950565;29;20104;-65
2022/12/20 00:19:04;;;;;;;0.60;0.60;;;;;;;;;;4919544;29;20398;-66
2022/12/20 00:21:32;;;;;;;0.50;0.50;;;;;;;;;;4936237;29;20165;-65
2022/12/20 00:23:57;;;;;;;2.47;1.67;;;;;;;;;;4949952;29;20462;-65
2022/12/20 00:26:25;;;;;;;0.63;0.63;;;;;;;;;;4952195;29;20033;-65
2022/12/20 00:28:51;;;;;;;1.53;1.20;;;;;;;;;;4920513;29;20045;-67
2022/12/20 00:31:17;;;;;;;2.60;1.70;;;;;;;;;;4936457;29;20378;-65
2022/12/20 00:33:47;;;;;;;1.13;1.03;;;;;;;;;;4920328;29;20381;-66
2022/12/20 00:36:13;;;;;;;1.47;1.20;;;;;;;;;;4936282;29;20127;-66
2022/12/20 00:38:39;;;;;;;0.83;0.73;;;;;;;;;;4915947;29;20031;-69
2022/12/20 00:41:09;;;;;;;0.80;0.80;;;;;;;;;;4935473;29;20057;-66
2022/12/20 00:43:35;;;;;;;3.80;1.70;;;;;;;;;;4935366;29;20039;-66
2022/12/20 00:46:02;;;;;;;1.00;1.00;;;;;;;;;;4952979;29;20047;-66
2022/12/20 00:48:28;;;;;;;1.83;1.20;;;;;;;;;;4952502;29;20049;-66
2022/12/20 00:51:01;;;;;;;1.47;1.37;;;;;;;;;;4936923;29;20035;-66
2022/12/20 00:53:27;;;;;;;0.90;0.90;;;;;;;;;;4920646;29;20037;-68
2022/12/20 00:55:52;;;;;;;1.23;1.13;;;;;;;;;;4921093;29;20129;-67
2022/12/20 00:58:18;;;;;;;1.80;1.60;;;;;;;;;;4936713;29;20089;-67
2022/12/20 01:00:44;;;;;;;3.40;2.03;;;;;;;;;;4952610;29;20039;-67
2022/12/20 01:03:09;;;;;;;3.03;1.50;;;;;;;;;;4921035;29;20490;-67
2022/12/20 01:05:35;;;;;;;1.73;1.30;;;;;;;;;;4950023;29;20063;-66
2022/12/20 01:08:01;;;;;;;4.03;2.23;;;;;;;;;;4933387;29;20039;-67
2022/12/20 01:10:27;;;;;;;1.17;1.10;;;;;;;;;;4949671;29;20046;-67
2022/12/20 01:12:52;;;;;;;2.73;1.70;;;;;;;;;;4933142;29;20042;-68
2022/12/20 01:15:18;;;;;;;0.90;0.83;;;;;;;;;;4934591;29;20105;-66
2022/12/20 01:17:44;;;;;;;1.33;1.17;;;;;;;;;;4950622;29;20035;-66
2022/12/20 01:20:09;;;;;;;1.50;1.40;;;;;;;;;;4934549;29;20118;-66
2022/12/20 01:22:35;;;;;;;1.87;1.40;;;;;;;;;;4953616;28;20401;-66
2022/12/20 01:25:01;;;;;;;0.90;0.90;;;;;;;;;;4940711;29;20541;-66
2022/12/20 01:27:29;;;;;;;1.23;1.10;;;;;;;;;;4956794;29;20043;-66
2022/12/20 01:29:54;;;;;;;0.60;0.60;;;;;;;;;;4924945;29;20388;-66
2022/12/20 01:32:20;;;;;;;1.37;1.13;;;;;;;;;;4924699;29;20136;-67
2022/12/20 01:34:46;;;;;;;1.00;0.93;;;;;;;;;;4940439;29;20031;-66
2022/12/20 01:37:11;;;;;;;1.73;1.33;;;;;;;;;;4940662;29;20049;-66
2022/12/20 01:39:37;;;;;;;4.20;1.90;;;;;;;;;;4924800;29;20043;-65
2022/12/20 01:42:03;;;;;;;2.70;1.50;;;;;;;;;;4924581;29;20402;-66
2022/12/20 01:44:29;;;;;;;4.17;2.47;;;;;;;;;;4940498;29;20039;-66
2022/12/20 01:46:55;;;;;;;0.90;0.90;;;;;;;;;;4940725;29;20050;-67
2022/12/20 01:49:22;;;;;;;2.77;2.00;;;;;;;;;;4956578;29;20039;-66
2022/12/20 01:51:50;;;;;;;1.73;1.60;;;;;;;;;;4939602;29;20038;-65
2022/12/20 01:54:20;;;;;;;1.03;0.93;;;;;;;;;;4923891;29;20549;-66
2022/12/20 01:56:49;;;;;;;4.03;2.53;;;;;;;;;;4956239;29;20043;-66
2022/12/20 01:59:15;;;;;;;3.80;2.03;;;;;;;;;;4940269;29;20047;-66
2022/12/20 02:01:41;;;;;;;1.93;1.50;;;;;;;;;;4923065;29;20043;-66
2022/12/20 02:04:08;;;;;;;2.40;1.90;;;;;;;;;;4922066;29;20121;-66
2022/12/20 02:06:35;;;;;;;5.43;2.90;;;;;;;;;;4953701;29;20046;-66
2022/12/20 02:09:03;;;;;;;2.10;1.60;;;;;;;;;;4937932;29;20039;-65
2022/12/20 02:11:53;;;;;;;3.53;1.87;;;;;;;;;;4937938;29;20478;-65
2022/12/20 02:14:38;;;;;;;2.90;1.98;;;;;;;;;;4938137;29;20126;-65
2022/12/20 02:17:13;;;;;;;1.00;1.00;;;;;;;;;;4953334;29;20442;-65
2022/12/20 02:19:45;;;;;;;2.33;1.60;;;;;;;;;;4923591;29;20058;-65
2022/12/20 02:22:22;;;;;;;3.97;2.20;;;;;;;;;;4939753;29;20182;-65
2022/12/20 02:25:06;;;;;;;1.13;1.03;;;;;;;;;;4955762;29;20049;-65
2022/12/20 02:27:55;;;;;;;1.23;0.97;;;;;;;;;;4939638;29;20070;-66
2022/12/20 02:30:22;;;;;;;1.13;1.03;;;;;;;;;;4929575;28;20047;-65
2022/12/20 02:32:56;;;;;;;1.30;1.10;;;;;;;;;;4939257;29;20063;-65
2022/12/20 02:35:24;;;;;;;2.97;2.00;;;;;;;;;;4954955;28;20438;-66
2022/12/20 02:37:52;;;;;;;4.10;1.77;;;;;;;;;;4923954;29;20484;-65
2022/12/20 02:40:20;;;;;;;1.30;1.20;;;;;;;;;;4923598;29;20363;-65
2022/12/20 02:42:47;;;;;;;1.00;1.00;;;;;;;;;;4955160;29;20043;-65
2022/12/20 02:45:16;;;;;;;1.03;1.00;;;;;;;;;;4939368;29;20070;-65
2022/12/20 02:47:54;;;;;;;3.37;2.00;;;;;;;;;;4955321;29;20417;-65
2022/12/20 02:50:29;;;;;;;0.93;0.93;;;;;;;;;;4923608;29;20039;-68
2022/12/20 02:52:55;;;;;;;3.27;1.70;;;;;;;;;;4939661;29;20142;-66
2022/12/20 02:55:26;;;;;;;2.23;1.40;;;;;;;;;;4955048;29;20609;-66
2022/12/20 02:57:59;;;;;;;3.22;1.88;;;;;;;;;;4955240;29;20031;-65
2022/12/20 03:00:25;;;;;;;5.40;2.80;;;;;;;;;;4939313;29;20043;-65
2022/12/20 03:05:42;;;;;;;5.37;2.50;;;;;;;;;;4954867;29;20062;-66
2022/12/20 03:08:07;;;;;;;4.20;2.50;;;;;;;;;;4939090;29;20042;-65
2022/12/20 03:10:33;;;;;;;0.90;0.90;;;;;;;;;;4922781;29;20046;-65
2022/12/20 03:12:59;;;;;;;1.83;1.70;;;;;;;;;;4923050;29;20519;-67
2022/12/20 03:15:27;;;;;;;8.53;2.97;;;;;;;;;;4939625;29;20039;-65
2022/12/20 03:17:55;;;;;;;3.10;2.20;;;;;;;;;;4923653;29;20035;-65
2022/12/20 03:20:21;;;;;;;2.53;1.73;;;;;;;;;;4954529;29;20185;-67
2022/12/20 03:22:47;;;;;;;5.50;2.87;;;;;;;;;;4922829;29;20054;-66
2022/12/20 03:25:12;;;;;;;1.80;1.50;;;;;;;;;;4922832;29;20046;-66
2022/12/20 03:27:38;;;;;;;0.90;0.90;;;;;;;;;;4938476;29;20035;-66
2022/12/20 03:30:05;;;;;;;1.30;1.20;;;;;;;;;;4938573;29;20497;-66
2022/12/20 03:32:33;;;;;;;2.50;1.97;;;;;;;;;;4954460;29;20043;-66
2022/12/20 03:34:59;;;;;;;6.57;2.40;;;;;;;;;;4938583;29;20090;-66
2022/12/20 03:37:30;;;;;;;3.50;1.97;;;;;;;;;;4923297;29;20032;-67
2022/12/20 03:39:56;;;;;;;3.50;1.63;;;;;;;;;;4938724;29;20106;-66
2022/12/20 03:42:23;;;;;;;5.77;3.60;;;;;;;;;;4938387;29;20492;-66
2022/12/20 03:44:49;;;;;;;3.20;1.80;;;;;;;;;;4954042;28;20039;-65
2022/12/20 03:47:14;;;;;;;1.23;0.83;;;;;;;;;;4922331;29;20066;-66
2022/12/20 03:49:40;;;;;;;1.30;1.20;;;;;;;;;;4938212;29;20041;-66
2022/12/20 03:52:05;;;;;;;6.77;3.03;;;;;;;;;;4921835;29;20087;-66
2022/12/20 03:54:31;;;;;;;4.07;2.47;;;;;;;;;;4920484;29;20031;-67
2022/12/20 03:57:06;;;;;;;2.83;1.57;;;;;;;;;;4936888;29;20067;-66
2022/12/20 03:59:32;;;;;;;1.40;1.30;;;;;;;;;;4952225;29;20043;-66
2022/12/20 04:01:59;;;;;;;0.80;0.80;;;;;;;;;;4936479;29;20055;-66
2022/12/20 04:04:27;;;;;;;0.90;0.90;;;;;;;;;;4920635;29;20396;-66
2022/12/20 04:06:53;;;;;;;5.27;2.70;;;;;;;;;;4920678;29;20039;-66
2022/12/20 04:09:19;;;;;;;1.07;1.07;;;;;;;;;;4937608;29;20055;-66
2022/12/20 04:11:48;;;;;;;2.20;1.67;;;;;;;;;;4922265;29;20050;-65
2022/12/20 04:14:14;;;;;;;5.17;2.87;;;;;;;;;;4937378;29;20039;-66
2022/12/20 04:16:40;;;;;;;1.70;1.20;;;;;;;;;;4921844;29;20118;-66
2022/12/20 04:19:08;;;;;;;1.30;1.20;;;;;;;;;;4922301;29;20062;-66
2022/12/20 04:21:39;;;;;;;3.43;2.20;;;;;;;;;;4938524;29;20051;-65
2022/12/20 04:24:05;;;;;;;5.57;2.77;;;;;;;;;;4937655;29;20429;-66
2022/12/20 04:26:57;;;;;;;6.30;2.35;;;;;;;;;;4924692;29;20035;-66
2022/12/20 04:29:23;;;;;;;1.93;1.50;;;;;;;;;;4921760;29;20373;-65
2022/12/20 04:31:49;;;;;;;4.20;1.80;;;;;;;;;;4953561;29;20039;-66
2022/12/20 04:34:15;;;;;;;0.80;0.80;;;;;;;;;;4953407;29;20043;-65
2022/12/20 04:36:41;;;;;;;2.80;2.40;;;;;;;;;;4937390;29;20137;-73
2022/12/20 04:39:13;;;;;;;3.80;2.07;;;;;;;;;;4922493;29;20043;-74
2022/12/20 04:41:59;;;;;;;2.53;1.53;;;;;;;;;;4937358;29;20389;-73
2022/12/20 04:44:25;;;;;;;3.47;2.30;;;;;;;;;;4921410;29;20039;-74
2022/12/20 04:46:51;;;;;;;2.27;1.80;;;;;;;;;;4953174;29;20039;-77
2022/12/20 04:49:19;;;;;;;3.53;1.90;;;;;;;;;;4921657;29;20070;-78
2022/12/20 04:51:44;;;;;;;1.47;1.37;;;;;;;;;;4953494;29;20145;-77
2022/12/20 04:54:12;;;;;;;9.90;3.93;;;;;;;;;;4921607;29;20473;-77
2022/12/20 04:56:44;;;;;;;7.70;3.37;;;;;;;;;;4921943;28;20042;-80
2022/12/20 04:59:15;;;;;;;3.20;1.95;;;;;;;;;;4922094;29;20031;-81
2022/12/20 05:01:44;;;;;;;2.37;1.93;;;;;;;;;;4932152;29;20054;-79
2022/12/20 05:04:13;;;;;;;1.00;1.00;;;;;;;;;;4919518;29;20129;-76
2022/12/20 05:06:39;;;;;;;2.40;1.87;;;;;;;;;;4919881;29;20138;-75
2022/12/20 05:09:05;;;;;;;2.83;2.17;;;;;;;;;;4920014;29;20043;-76
2022/12/20 05:11:32;;;;;;;2.00;1.50;;;;;;;;;;4935098;29;20478;-75
2022/12/20 05:13:58;;;;;;;4.53;2.00;;;;;;;;;;4919409;29;20137;-76
2022/12/20 05:16:24;;;;;;;2.43;1.47;;;;;;;;;;4936505;29;20031;-77
2022/12/20 05:18:50;;;;;;;1.47;1.37;;;;;;;;;;4937006;29;20174;-75
2022/12/20 05:26:55;;;;;;;1.10;1.10;;;;;;;;;;4935748;29;20093;-78
2022/12/20 05:29:21;;;;;;;1.43;1.30;;;;;;;;;;4920018;29;20051;-78
2022/12/20 05:31:47;;;;;;;1.30;1.20;;;;;;;;;;4935280;29;20062;-77
2022/12/20 05:34:14;;;;;;;2.03;1.50;;;;;;;;;;4919902;29;20039;-77
2022/12/20 05:36:42;;;;;;;0.77;0.77;;;;;;;;;;4935640;29;20502;-76
2022/12/20 05:39:10;;;;;;;2.40;1.40;;;;;;;;;;4935476;29;20058;-76
2022/12/20 05:41:39;;;;;;;0.90;0.90;;;;;;;;;;4935546;29;20043;-77
2022/12/20 05:44:06;;;;;;;1.20;1.10;;;;;;;;;;4935590;29;20038;-77
2022/12/20 05:46:35;;;;;;;0.80;0.80;;;;;;;;;;4943813;28;20051;-75
2022/12/20 05:49:05;;;;;;;1.45;0.98;;;;;;;;;;4935681;29;20039;-74
2022/12/20 05:51:31;;;;;;;0.83;0.83;;;;;;;;;;4914734;29;20050;-73
2022/12/20 05:54:16;;;;;;;0.73;0.73;;;;;;;;;;4920083;29;20105;-72
2022/12/20 05:56:53;;;;;;;0.70;0.70;;;;;;;;;;4925895;29;20358;-73
2022/12/20 05:59:25;;;;;;;0.87;0.87;;;;;;;;;;4935537;29;20047;-72
2022/12/20 06:01:50;;;;;;;1.40;1.27;;;;;;;;;;4918846;29;20039;-74
2022/12/20 06:04:16;;;;;;;1.07;1.00;;;;;;;;;;4918795;29;20043;-75
2022/12/20 06:06:44;;;;;;;1.73;1.50;;;;;;;;;;4935461;29;20183;-75
2022/12/20 06:09:12;;;;;;;1.20;1.10;;;;;;;;;;4920194;29;20041;-75
2022/12/20 06:11:43;;;;;;;2.28;1.00;;;;;;;;;;4911782;29;20050;-75
2022/12/20 06:14:12;;;;;;;0.70;0.70;;;;;;;;;;4900857;29;20099;-74
2022/12/20 06:16:42;;;;;;;;;;;;;;;;;;4918118;29;20058;-75
2022/12/20 06:19:09;;;;;;;1.43;1.33;;;;;;;;;;4906629;29;19914;-73
2022/12/20 06:21:35;;;;;;;0.90;0.90;;;;;;;;;;4916766;29;20042;-74
2022/12/20 06:24:02;;;;;;;3.60;1.60;;;;;;;;;;4900758;29;20035;-76
2022/12/20 06:26:34;;;;;;;1.60;1.27;;;;;;;;;;4916654;29;20072;-74
2022/12/20 06:29:02;;;;;;;1.67;1.53;;;;;;;;;;4915626;29;20074;-74
2022/12/20 06:31:36;;;;;;;1.83;1.50;;;;;;;;;;4916975;29;20434;-74
2022/12/20 06:34:02;;;;;;;2.23;1.67;;;;;;;;;;4900277;29;20036;-75
2022/12/20 06:36:32;;;;;;;0.90;0.90;;;;;;;;;;4916901;29;20507;-74
2022/12/20 06:38:59;;;;;;;2.23;1.33;;;;;;;;;;4901342;29;20047;-75
2022/12/20 06:41:25;;;;;;;1.40;1.30;;;;;;;;;;4900122;29;20046;-76
2022/12/20 06:43:52;;;;;;;1.20;1.13;;;;;;;;;;4916137;29;20035;-76
2022/12/20 06:46:18;;;;;;;1.00;1.00;;;;;;;;;;4900921;29;20589;-76
2022/12/20 06:48:44;;;;;;;2.77;1.20;;;;;;;;;;4916707;29;20032;-75
2022/12/20 06:51:11;;;;;;;1.77;1.20;;;;;;;;;;4900697;29;20485;-74
2022/12/20 06:53:36;;;;;;;1.10;1.10;;;;;;;;;;4898624;29;20031;-75
2022/12/20 06:56:02;;;;;;;0.87;0.87;;;;;;;;;;4914696;29;20386;-76
2022/12/20 06:58:30;;;;;;;1.13;1.03;;;;;;;;;;4948908;29;20474;-76
2022/12/20 07:00:56;;;;;;;1.00;1.00;;;;;;;;;;4934289;29;20035;-76
2022/12/20 07:03:21;;;;;;;1.27;1.17;;;;;;;;;;4918744;29;20074;-75
2022/12/20 07:05:54;;;;;;;1.37;0.80;;;;;;;;;;4919133;29;20469;-75
2022/12/20 07:08:21;;;;;;;0.90;0.90;;;;;;;;;;4916037;29;20046;-75
2022/12/20 07:10:46;;;;;;;1.10;1.10;;;;;;;;;;4917600;29;20146;-76
2022/12/20 07:13:12;;;;;;;1.10;1.00;;;;;;;;;;4916679;29;20114;-74
2022/12/20 07:15:38;;;;;;;1.63;1.27;;;;;;;;;;4917737;29;20046;-74
2022/12/20 07:18:03;;;;;;;0.90;0.90;;;;;;;;;;4932965;29;20039;-75
2022/12/20 07:20:29;;;;;;;1.60;1.20;;;;;;;;;;4917606;29;20050;-76
2022/12/20 07:22:55;;;;;;;1.13;1.03;;;;;;;;;;4933754;29;20101;-75
2022/12/20 07:25:21;;;;;;;3.03;1.93;;;;;;;;;;4918432;29;20548;-74
2022/12/20 07:27:48;;;;;;;1.80;1.70;;;;;;;;;;4934015;29;20042;-75
2022/12/20 07:30:14;;;;;;;1.73;1.30;;;;;;;;;;4932514;29;20061;-75
2022/12/20 07:32:40;;;;;;;1.10;1.10;;;;;;;;;;4934265;29;20486;-76
2022/12/20 07:35:06;;;;;;;1.17;1.10;;;;;;;;;;4917540;29;20041;-74
2022/12/20 07:37:34;;;;;;;1.10;1.00;;;;;;;;;;4950194;29;20043;-74
2022/12/20 07:39:59;;;;;;;1.13;1.03;;;;;;;;;;4918005;29;20035;-75
2022/12/20 07:42:25;;;;;;;4.33;1.80;;;;;;;;;;4934283;29;20058;-74
2022/12/20 07:44:52;;;;;;;3.43;1.93;;;;;;;;;;4933661;29;20070;-75
2022/12/20 07:47:18;;;;;;;2.80;1.40;;;;;;;;;;4933495;29;20063;-74
2022/12/20 07:49:44;;;;;;;2.17;1.33;;;;;;;;;;4933541;29;20051;-74
2022/12/20 07:52:11;;;;;;;3.83;1.70;;;;;;;;;;4914160;29;20031;-75
2022/12/20 07:54:39;;;;;;;3.07;1.70;;;;;;;;;;4933031;29;20031;-76
2022/12/20 07:57:08;;;;;;;5.33;1.30;;;;;;;;;;4949334;29;20474;-76
2022/12/20 07:59:44;;;;;;;2.77;1.60;;;;;;;;;;4933439;29;20063;-76
2022/12/20 08:02:12;;;;;;;4.27;2.40;;;;;;;;;;4930586;29;20604;-76
2022/12/20 08:04:40;;;;;;;3.43;2.00;;;;;;;;;;4949100;29;20039;-77
2022/12/20 08:07:07;;;;;;;3.27;1.40;;;;;;;;;;4949211;29;20046;-75
2022/12/20 08:09:35;;;;;;;6.17;2.40;;;;;;;;;;4933358;29;20031;-73
2022/12/20 08:12:01;;;;;;;1.70;1.20;;;;;;;;;;4948556;29;20396;-74
2022/12/20 08:14:26;;;;;;;3.83;1.93;;;;;;;;;;4948677;29;20523;-74
2022/12/20 08:16:52;;;;;;;2.67;1.50;;;;;;;;;;4916913;29;20485;-73
2022/12/20 08:19:18;;;;;;;2.93;1.80;;;;;;;;;;4932974;29;20533;-74
2022/12/20 08:21:43;;;;;;;2.27;1.70;;;;;;;;;;4932914;29;20046;-73
2022/12/20 08:24:09;;;;;;;3.30;1.60;;;;;;;;;;4932745;29;20035;-74
2022/12/20 08:26:38;;;;;;;1.53;1.33;;;;;;;;;;4917200;29;20534;-74
2022/12/20 08:29:04;;;;;;;2.93;1.77;;;;;;;;;;4931875;29;20035;-75
2022/12/20 08:31:29;;;;;;;1.80;1.67;;;;;;;;;;4917852;28;20050;-73
2022/12/20 08:33:56;;;;;;;1.90;1.30;;;;;;;;;;4931508;29;20386;-74
2022/12/20 08:36:22;;;;;;;0.90;0.90;;;;;;;;;;4916477;29;20038;-74
2022/12/20 08:38:48;;;;;;;2.40;1.20;;;;;;;;;;4948398;29;20122;-73
2022/12/20 08:41:15;;;;;;;1.97;1.40;;;;;;;;;;4928085;29;20513;-74
2022/12/20 08:43:41;;;;;;;1.93;1.27;;;;;;;;;;4917042;29;20043;-74
2022/12/20 08:46:10;;;;;;;3.20;1.93;;;;;;;;;;4932707;29;20050;-75
2022/12/20 08:48:36;;;;;;;2.27;1.27;;;;;;;;;;4915953;29;20062;-75
2022/12/20 08:51:07;;;;;;;3.67;1.63;;;;;;;;;;4948517;29;20038;-74
2022/12/20 08:53:34;;;;;;;3.80;1.98;;;;;;;;;;4916547;29;20027;-74
2022/12/20 08:56:06;;;;;;;3.75;1.90;;;;;;;;;;4931417;29;20035;-74
2022/12/20 08:58:32;;;;;;;4.93;2.25;;;;;;;;;;4914814;29;20067;-75
2022/12/20 09:01:01;;;;;;;5.75;2.85;;;;;;;;;;4914826;29;20058;-73
2022/12/20 09:03:30;;;;;;;2.78;1.52;;;;;;;;;;4945665;29;20062;-75
2022/12/20 09:05:56;;;;;;;5.38;2.72;;;;;;;;;;4917069;29;20065;-75
2022/12/20 09:08:22;;;;;;;4.45;2.13;;;;;;;;;;4932334;29;20458;-75
2022/12/20 09:10:47;;;;;;;9.15;3.35;;;;;;;;;;4932415;29;20042;-74
2022/12/20 09:13:13;;;;;;;5.25;2.17;;;;;;;;;;4917233;29;20517;-74
2022/12/20 09:15:39;;;;;;;9.70;3.35;;;;;;;;;;4933256;29;20035;-75
2022/12/20 09:18:04;;;;;;;8.05;3.22;;;;;;;;;;4933396;29;20039;-75
2022/12/20 09:20:31;;;;;;;3.63;1.67;;;;;;;;;;4932501;29;20053;-77
2022/12/20 09:22:57;;;;;;;5.05;1.83;;;;;;;;;;4932029;29;20043;-76
2022/12/20 09:25:23;;;;;;;13.48;3.75;;;;;;;;;;4916860;29;20037;-75
2022/12/20 09:27:49;;;;;;;8.30;3.10;;;;;;;;;;4932742;29;20042;-78
2022/12/20 09:30:14;;;;;;;6.50;2.40;;;;;;;;;;4914126;29;20131;-75
2022/12/20 09:32:40;;;;;;;8.10;2.97;;;;;;;;;;4948082;29;20045;-76
2022/12/20 09:35:06;;;;;;;10.55;2.95;;;;;;;;;;4947727;29;20366;-76
2022/12/20 09:37:31;;;;;;;14.38;3.53;;;;;;;;;;4917049;29;20043;-77
2022/12/20 09:39:58;;;;;;;8.18;2.33;;;;;;;;;;4917753;29;20499;-76
2022/12/20 09:42:25;;;;;;;7.88;2.28;;;;;;;;;;4916948;29;20545;-76
2022/12/20 09:44:51;;;;;;;11.20;3.38;;;;;;;;;;4934925;29;20382;-75
2022/12/20 09:47:18;;;;;;;10.85;3.17;;;;;;;;;;4931573;29;20035;-75
2022/12/20 09:49:45;;;;;;;2.40;1.23;;;;;;;;;;4951362;29;20027;-75
2022/12/20 09:52:30;;;;;;;4.82;1.88;;;;;;;;;;4952320;29;20078;-75
2022/12/20 09:54:55;;;;;;;6.38;2.45;;;;;;;;;;4936418;29;20035;-75
2022/12/20 09:57:40;;;;;;;2.78;1.17;;;;;;;;;;4935755;29;20050;-75
2022/12/20 10:00:23;;;;;;;4.03;1.67;;;;;;;;;;4949626;29;20031;-75
2022/12/20 10:02:49;;;;;;;3.30;1.65;;;;;;;;;;4918564;29;20042;-75
2022/12/20 10:05:32;;;;;;;9.02;2.35;;;;;;;;;;4936529;29;20063;-75
2022/12/20 10:08:14;;;;;;;3.28;1.50;;;;;;;;;;4935736;29;20499;-75
2022/12/20 10:11:00;;;;;;;3.45;1.88;;;;;;;;;;4953619;28;20474;-75
2022/12/20 10:13:55;;;;;;;3.17;2.00;;;;;;;;;;4920036;29;20047;-76
2022/12/20 10:16:39;;;;;;;5.72;2.75;;;;;;;;;;4927917;29;20070;-75
2022/12/20 10:19:11;;;;;;;10.30;3.90;;;;;;;;;;4920019;29;20043;-75
2022/12/20 10:21:43;;;;;;;10.45;2.97;;;;;;;;;;4920420;29;20046;-75
2022/12/20 10:24:30;;;;;;;7.28;3.15;;;;;;;;;;4935508;29;20038;-75
2022/12/20 10:27:13;;;;;;;7.97;3.50;;;;;;;;;;4952035;29;20039;-76
2022/12/20 10:29:39;;;;;;;5.97;3.60;;;;;;;;;;4933319;29;20138;-79
2022/12/20 10:32:10;;;;;;;7.55;3.40;;;;;;;;;;4920606;29;20545;-75
2022/12/20 10:34:36;;;;;;;;;;;;;;;;;;4936364;29;20106;-80
2022/12/20 10:37:12;;;;;;;8.25;3.35;;;;;;;;;;4935710;29;20337;-79
2022/12/20 10:39:42;;;;;;;5.88;3.60;;;;;;;;;;4951111;29;20481;-79
2022/12/20 10:42:27;;;;;;;7.17;3.33;;;;;;;;;;4936005;29;20054;-79
2022/12/20 10:44:54;;;;;;;8.98;4.07;;;;;;;;;;4909890;29;20047;-77
2022/12/20 10:47:24;;;;;;;8.68;3.80;;;;;;;;;;4919566;29;20106;-76
2022/12/20 10:49:50;;;;;;;6.18;3.70;;;;;;;;;;4915764;29;20130;-79
2022/12/20 10:52:17;;;;;;;7.30;3.95;;;;;;;;;;4932420;29;20130;-78
2022/12/20 10:54:44;;;;;;;8.32;4.30;;;;;;;;;;4932983;29;20036;-74
2022/12/20 10:57:16;;;;;;;6.73;3.90;;;;;;;;;;4918940;29;20043;-78
2022/12/20 10:59:50;;;;;;;9.67;4.53;;;;;;;;;;4934729;29;20035;-75
2022/12/20 11:02:30;;;;;;;8.90;3.87;;;;;;;;;;4952464;28;20050;-80
2022/12/20 11:05:16;;;;;;;9.70;4.60;;;;;;;;;;4951496;29;20482;-76
2022/12/20 11:07:53;;;;;;;7.60;4.23;;;;;;;;;;4925362;29;20047;-78
2022/12/20 11:10:23;;;;;;;9.80;4.67;;;;;;;;;;4935431;29;20599;-76
2022/12/20 11:12:53;;;;;;;7.80;4.80;;;;;;;;;;4951465;28;20152;-74
2022/12/20 11:15:19;;;;;;;9.53;4.70;;;;;;;;;;4951141;29;20053;-78
2022/12/20 11:17:47;;;;;;;11.27;4.87;;;;;;;;;;4919088;29;20043;-79
2022/12/20 11:20:34;;;;;;;10.93;4.87;;;;;;;;;;4919613;29;20035;-77
2022/12/20 11:22:59;;;;;;;9.10;4.90;;;;;;;;;;4951078;29;20433;-80
2022/12/20 11:25:31;;;;;;;10.63;5.17;;;;;;;;;;4914191;29;20045;-79
2022/12/20 11:28:18;;;;;;;12.47;4.90;;;;;;;;;;4919214;29;20059;-78
2022/12/20 11:31:00;;;;;;;8.83;4.80;;;;;;;;;;4918795;29;20047;-78
2022/12/20 11:33:29;;;;;;;7.97;4.50;;;;;;;;;;4948695;29;20039;-80
2022/12/20 11:35:56;;;;;;;7.32;4.32;;;;;;;;;;4952532;29;20035;-76
2022/12/20 11:38:25;;;;;;;12.67;5.23;;;;;;;;;;4920555;29;20050;-76
2022/12/20 11:41:00;;;;;;;14.00;5.17;;;;;;;;;;4951785;29;20035;-77
2022/12/20 11:43:39;;;;;;;12.40;5.20;;;;;;;;;;4936663;29;20050;-76
2022/12/20 11:46:13;;;;;;;8.83;4.40;;;;;;;;;;4953067;29;20043;-73
2022/12/20 11:48:57;;;;;;;10.53;4.97;;;;;;;;;;4952140;29;20050;-70
2022/12/20 11:51:24;;;;;;;12.10;4.67;;;;;;;;;;4934450;29;20105;-74
2022/12/20 11:54:01;;;;;;;11.53;5.20;;;;;;;;;;4932283;29;20034;-71
2022/12/20 11:56:36;;;;;;;12.00;5.43;;;;;;;;;;4930508;29;20039;-77
2022/12/20 11:59:04;;;;;;;14.90;6.10;;;;;;;;;;4931855;29;20371;-71
2022/12/20 12:01:33;;;;;;;12.70;5.50;;;;;;;;;;4926563;28;20469;-76
2022/12/20 12:04:18;;;;;;;14.17;5.83;;;;;;;;;;4949391;29;20122;-76
2022/12/20 12:06:48;;;;;;;14.63;5.53;;;;;;;;;;4933088;29;20090;-74
2022/12/20 12:09:23;;;;;;;15.18;5.85;;;;;;;;;;4948984;29;20486;-78
2022/12/20 12:11:51;;;;;;;19.43;6.43;;;;;;;;;;4947472;29;20038;-79
2022/12/20 12:14:34;;;;;;;16.60;6.43;;;;;;;;;;4933120;29;20058;-77
2022/12/20 12:17:05;;;;;;;14.77;5.60;;;;;;;;;;4947873;29;20035;-74
2022/12/20 12:19:33;;;;;;;13.80;5.50;;;;;;;;;;4917021;29;20461;-76
2022/12/20 12:22:05;;;;;;;11.80;5.13;;;;;;;;;;4948553;29;20031;-77
2022/12/20 12:24:37;;;;;;;12.17;5.07;;;;;;;;;;4932752;29;20031;-76
2022/12/20 12:27:04;;;;;;;19.73;6.03;;;;;;;;;;4947241;29;20038;-72
2022/12/20 12:29:32;;;;;;;13.37;5.13;;;;;;;;;;4947939;29;20050;-77
2022/12/20 12:32:07;;;;;;;19.77;5.60;;;;;;;;;;4933312;29;20065;-73
2022/12/20 12:35:05;;;;;;;15.23;5.93;;;;;;;;;;4934170;29;20122;-74
2022/12/20 12:37:31;;;;;;;14.00;5.73;;;;;;;;;;4892194;29;20147;-75
2022/12/20 12:40:03;;;;;;;17.93;6.17;;;;;;;;;;4949076;29;20515;-74
2022/12/20 12:42:47;;;;;;;17.93;5.80;;;;;;;;;;4933612;29;20069;-75
2022/12/20 12:45:19;;;;;;;17.40;5.80;;;;;;;;;;4932811;29;20842;-75
2022/12/20 12:48:06;;;;;;;18.40;6.03;;;;;;;;;;4917840;29;20051;-75
2022/12/20 12:50:35;;;;;;;12.93;6.20;;;;;;;;;;4933574;29;20035;-75
2022/12/20 12:53:07;;;;;;;16.00;6.22;;;;;;;;;;4949315;29;20177;-74
2022/12/20 12:55:35;;;;;;;11.77;5.25;;;;;;;;;;4933623;29;20126;-75
2022/12/20 12:58:19;;;;;;;21.57;7.10;;;;;;;;;;4917895;29;20482;-77
2022/12/20 13:00:51;;;;;;;23.30;6.17;;;;;;;;;;4931343;29;20043;-75
2022/12/20 13:03:38;;;;;;;19.67;7.03;;;;;;;;;;4929575;29;20071;-71
2022/12/20 13:06:22;;;;;;;18.93;6.33;;;;;;;;;;4930071;29;20418;-74
2022/12/20 13:09:08;;;;;;;16.93;5.83;;;;;;;;;;4931508;29;20058;-73
2022/12/20 13:11:35;;;;;;;15.40;5.80;;;;;;;;;;4912053;29;20035;-75
2022/12/20 13:14:16;;;;;;;16.83;5.23;;;;;;;;;;4947833;29;20086;-75
2022/12/20 13:16:41;;;;;;;;;;;;;;;;;;4915640;29;20184;-77
2022/12/20 13:19:30;;;;;;;16.40;5.63;;;;;;;;;;4934102;29;20073;-75
2022/12/20 13:22:16;;;;;;;20.40;6.20;;;;;;;;;;4933593;29;20457;-74
2022/12/20 13:24:55;;;;;;;17.13;6.50;;;;;;;;;;4910643;29;20242;-76
2022/12/20 13:27:48;;;;;;;20.03;6.70;;;;;;;;;;4921333;29;20103;-76
2022/12/20 13:30:14;;;;;;;16.70;6.43;;;;;;;;;;4935237;29;20045;-76
2022/12/20 13:32:46;;;;;;;20.67;7.07;;;;;;;;;;4954911;29;20060;-78
2022/12/20 13:35:24;;;;;;;16.47;6.23;;;;;;;;;;4939443;29;20050;-77
2022/12/20 13:38:06;;;;;;;16.23;5.70;;;;;;;;;;4938408;29;20031;-78
2022/12/20 13:40:38;;;;;;;18.83;6.40;;;;;;;;;;4936141;29;20353;-77
2022/12/20 13:43:16;;;;;;;20.53;7.33;;;;;;;;;;4937909;29;20042;-77
2022/12/20 13:45:44;;;;;;;20.77;6.97;;;;;;;;;;4948390;29;20053;-77
2022/12/20 13:48:16;;;;;;;20.83;6.97;;;;;;;;;;4953611;29;20107;-76
2022/12/20 13:50:51;;;;;;;15.57;6.17;;;;;;;;;;4954376;29;20385;-75
2022/12/20 13:53:26;;;;;;;15.80;6.13;;;;;;;;;;4923116;29;20081;-77
2022/12/20 13:55:52;;;;;;;19.93;7.37;;;;;;;;;;4939580;29;20035;-75
2022/12/20 13:58:19;;;;;;;19.83;7.07;;;;;;;;;;4938200;29;20077;-75
2022/12/20 14:00:45;;;;;;;23.27;6.80;;;;;;;;;;4938933;29;20039;-75
2022/12/20 14:03:14;;;;;;;19.23;7.60;;;;;;;;;;4938217;29;20393;-75
2022/12/20 14:05:40;;;;;;;27.47;7.90;;;;;;;;;;4954399;29;20055;-74
2022/12/20 14:08:07;;;;;;;26.87;7.53;;;;;;;;;;4938553;29;20106;-74
2022/12/20 14:10:33;;;;;;;23.07;7.53;;;;;;;;;;4955796;28;20038;-75
2022/12/20 14:12:58;;;;;;;19.77;7.67;;;;;;;;;;4953502;29;20105;-74
2022/12/20 14:15:24;;;;;;;21.53;7.83;;;;;;;;;;4954063;29;20118;-74
2022/12/20 14:17:50;;;;;;;23.87;7.80;;;;;;;;;;4922259;29;20045;-75
2022/12/20 14:20:16;;;;;;;20.50;7.40;;;;;;;;;;4922508;29;20661;-76
2022/12/20 14:22:45;;;;;;;24.40;7.03;;;;;;;;;;4953482;29;20060;-74
2022/12/20 14:25:13;;;;;;;19.43;7.27;;;;;;;;;;4921856;29;20409;-75
2022/12/20 14:27:39;;;;;;;24.57;7.47;;;;;;;;;;4936521;29;20053;-75
2022/12/20 14:30:05;;;;;;;30.87;7.37;;;;;;;;;;4921294;29;20039;-75
2022/12/20 14:32:32;;;;;;;23.23;7.17;;;;;;;;;;4935437;29;20134;-75
2022/12/20 14:34:58;;;;;;;21.13;7.97;;;;;;;;;;4921661;29;20137;-74
2022/12/20 14:37:30;;;;;;;19.73;8.10;;;;;;;;;;4938414;29;20028;-75
2022/12/20 14:40:07;;;;;;;19.97;7.63;;;;;;;;;;4922286;29;20526;-75
2022/12/20 14:42:36;;;;;;;20.07;7.27;;;;;;;;;;4922235;29;20051;-75
2022/12/20 14:45:03;;;;;;;26.10;8.07;;;;;;;;;;4938511;29;20043;-74
2022/12/20 14:47:30;;;;;;;19.93;7.10;;;;;;;;;;4922034;29;20101;-74
2022/12/20 14:50:00;;;;;;;18.47;7.20;;;;;;;;;;4937626;29;20053;-74
2022/12/20 14:52:33;;;;;;;14.45;6.88;;;;;;;;;;4921605;29;20150;-76
2022/12/20 14:55:00;;;;;;;20.70;7.53;;;;;;;;;;4922249;29;20031;-75
2022/12/20 14:57:29;;;;;;;19.63;7.00;;;;;;;;;;4935110;29;20126;-75
2022/12/20 15:00:15;;;;;;;18.37;7.77;;;;;;;;;;4935795;29;20027;-75
2022/12/20 15:02:45;;;;;;;23.97;7.37;;;;;;;;;;4907544;29;20149;-75
2022/12/20 15:05:29;;;;;;;18.20;7.37;;;;;;;;;;4935999;29;20102;-76